CTV983 WIPP-WIII
Flight info
| Callsign | CTV983 |
|---|---|
| Flight time | 0h 49m |
| Altitude | 37000 |
| Route | UDOKO T5 BUNIK |
| Aircraft | A332/H-SDE3GHIJ2J3J5M1RVWXY/LB2D1 |
Departure
| Time | 2026-04-24 13:36 |
|---|---|
| Airport | Sultan Mahmud Badaruddin II Airport (WIPP) |
Arrival
| Time | 2026-04-24 14:26 |
|---|---|
| Airport | Soekarno-Hatta International Airport (WIII) |
| Time | Latitude | Longitude | Altitude | Speed | Heading |
|---|---|---|---|---|---|
| 2026-04-24 13:19 | -2.89634 | 104.70501 | 30 ft | 0 kts | 23° |
| 2026-04-24 13:25 | -2.89640 | 104.70498 | 26 ft | 4 kts | 22° |
| 2026-04-24 13:25 | -2.89665 | 104.70488 | 28 ft | 4 kts | 18° |
| 2026-04-24 13:25 | -2.89691 | 104.70481 | 32 ft | 4 kts | 10° |
| 2026-04-24 13:26 | -2.89718 | 104.70479 | 32 ft | 4 kts | 343° |
| 2026-04-24 13:26 | -2.89733 | 104.70488 | 31 ft | 1 kts | 293° |
| 2026-04-24 13:26 | -2.89734 | 104.70492 | 30 ft | 0 kts | 293° |
| 2026-04-24 13:29 | -2.89727 | 104.70476 | 31 ft | 4 kts | 293° |
| 2026-04-24 13:29 | -2.89718 | 104.70453 | 29 ft | 7 kts | 293° |
| 2026-04-24 13:29 | -2.89685 | 104.70377 | 11 ft | 11 kts | 293° |
| 2026-04-24 13:29 | -2.89652 | 104.70297 | 29 ft | 12 kts | 289° |
| 2026-04-24 13:30 | -2.89677 | 104.70236 | 26 ft | 9 kts | 211° |
| 2026-04-24 13:30 | -2.89730 | 104.70205 | 25 ft | 9 kts | 232° |
| 2026-04-24 13:30 | -2.89726 | 104.70168 | 25 ft | 8 kts | 289° |
| 2026-04-24 13:30 | -2.89708 | 104.70123 | 25 ft | 7 kts | 292° |
| 2026-04-24 13:31 | -2.89687 | 104.70071 | 22 ft | 10 kts | 292° |
| 2026-04-24 13:31 | -2.89653 | 104.69992 | 23 ft | 15 kts | 294° |
| 2026-04-24 13:31 | -2.89603 | 104.69877 | 18 ft | 20 kts | 290° |
| 2026-04-24 13:31 | -2.89544 | 104.69734 | 19 ft | 24 kts | 292° |
| 2026-04-24 13:32 | -2.89473 | 104.69567 | 17 ft | 27 kts | 294° |
| 2026-04-24 13:32 | -2.89400 | 104.69395 | 19 ft | 27 kts | 293° |
| 2026-04-24 13:32 | -2.89327 | 104.69223 | 18 ft | 27 kts | 294° |
| 2026-04-24 13:32 | -2.89269 | 104.69082 | 20 ft | 17 kts | 290° |
| 2026-04-24 13:33 | -2.89317 | 104.68996 | 20 ft | 15 kts | 207° |
| 2026-04-24 13:33 | -2.89380 | 104.68937 | 20 ft | 11 kts | 263° |
| 2026-04-24 13:33 | -2.89350 | 104.68856 | 22 ft | 16 kts | 293° |
| 2026-04-24 13:33 | -2.89297 | 104.68726 | 18 ft | 23 kts | 292° |
| 2026-04-24 13:34 | -2.89267 | 104.68583 | 20 ft | 13 kts | 268° |
| 2026-04-24 13:34 | -2.89222 | 104.68560 | 20 ft | 9 kts | 41° |
| 2026-04-24 13:34 | -2.89226 | 104.68585 | 18 ft | 2 kts | 152° |
| 2026-04-24 13:34 | -2.89235 | 104.68589 | 18 ft | 0 kts | 152° |
| 2026-04-24 13:35 | -2.89237 | 104.68591 | 18 ft | 1 kts | 150° |
| 2026-04-24 13:35 | -2.89246 | 104.68603 | 20 ft | 3 kts | 116° |
| 2026-04-24 13:35 | -2.89257 | 104.68630 | 18 ft | 13 kts | 112° |
| 2026-04-24 13:35 | -2.89387 | 104.68941 | 22 ft | 83 kts | 113° |
| 2026-04-24 13:36 | -2.89693 | 104.69666 | 16 ft | 140 kts | 112° |
| 2026-04-24 13:36 | -2.90125 | 104.70690 | 185 ft | 168 kts | 112° |
| 2026-04-24 13:36 | -2.90533 | 104.71792 | 702 ft | 172 kts | 107° |
| 2026-04-24 13:36 | -2.90891 | 104.72944 | 1297 ft | 174 kts | 106° |
| 2026-04-24 13:37 | -2.91247 | 104.74131 | 1630 ft | 188 kts | 106° |
| 2026-04-24 13:37 | -2.91663 | 104.75451 | 1772 ft | 210 kts | 107° |
| 2026-04-24 13:37 | -2.92135 | 104.76916 | 1963 ft | 232 kts | 107° |
| 2026-04-24 13:37 | -2.92652 | 104.78505 | 2210 ft | 254 kts | 107° |
| 2026-04-24 13:38 | -2.93211 | 104.80215 | 2767 ft | 262 kts | 107° |
| 2026-04-24 13:38 | -2.93780 | 104.81960 | 3455 ft | 265 kts | 107° |
| 2026-04-24 13:38 | -2.94355 | 104.83723 | 4145 ft | 268 kts | 107° |
| 2026-04-24 13:38 | -2.94941 | 104.85499 | 4828 ft | 271 kts | 110° |
| 2026-04-24 13:39 | -2.95815 | 104.87178 | 5482 ft | 274 kts | 124° |
| 2026-04-24 13:39 | -2.96945 | 104.88721 | 6162 ft | 276 kts | 125° |
| 2026-04-24 13:39 | -2.98090 | 104.90281 | 6814 ft | 279 kts | 125° |
| 2026-04-24 13:39 | -2.99240 | 104.91853 | 7433 ft | 281 kts | 125° |
| 2026-04-24 13:40 | -3.00395 | 104.93439 | 8050 ft | 284 kts | 125° |
| 2026-04-24 13:40 | -3.01560 | 104.95040 | 8671 ft | 286 kts | 125° |
| 2026-04-24 13:40 | -3.02743 | 104.96662 | 9262 ft | 289 kts | 125° |
| 2026-04-24 13:40 | -3.03934 | 104.98296 | 9845 ft | 292 kts | 125° |
| 2026-04-24 13:41 | -3.05139 | 104.99949 | 10391 ft | 295 kts | 125° |
| 2026-04-24 13:41 | -3.06342 | 105.01601 | 10778 ft | 305 kts | 125° |
| 2026-04-24 13:41 | -3.07644 | 105.03391 | 10892 ft | 324 kts | 125° |
| 2026-04-24 13:42 | -3.10538 | 105.07369 | 11163 ft | 359 kts | 125° |
| 2026-04-24 13:42 | -3.13536 | 105.11482 | 12007 ft | 369 kts | 125° |
| 2026-04-24 13:42 | -3.15054 | 105.13564 | 12503 ft | 372 kts | 125° |
| 2026-04-24 13:43 | -3.16582 | 105.15664 | 13002 ft | 375 kts | 125° |
| 2026-04-24 13:43 | -3.18122 | 105.17782 | 13497 ft | 377 kts | 125° |
| 2026-04-24 13:43 | -3.19667 | 105.19911 | 13951 ft | 380 kts | 125° |
| 2026-04-24 13:43 | -3.21228 | 105.22058 | 14375 ft | 382 kts | 125° |
| 2026-04-24 13:44 | -3.22798 | 105.24214 | 14795 ft | 385 kts | 125° |
| 2026-04-24 13:44 | -3.24383 | 105.26386 | 15216 ft | 387 kts | 125° |
| 2026-04-24 13:44 | -3.26143 | 105.28438 | 15622 ft | 391 kts | 135° |
| 2026-04-24 13:44 | -3.28217 | 105.30226 | 16031 ft | 395 kts | 139° |
| 2026-04-24 13:45 | -3.30333 | 105.31983 | 16438 ft | 397 kts | 139° |
| 2026-04-24 13:45 | -3.32465 | 105.33758 | 16841 ft | 399 kts | 139° |
| 2026-04-24 13:45 | -3.34607 | 105.35547 | 17227 ft | 402 kts | 139° |
| 2026-04-24 13:45 | -3.36763 | 105.37349 | 17637 ft | 405 kts | 139° |
| 2026-04-24 13:46 | -3.38931 | 105.39164 | 18030 ft | 407 kts | 139° |
| 2026-04-24 13:46 | -3.41109 | 105.40986 | 18387 ft | 410 kts | 139° |
| 2026-04-24 13:46 | -3.43306 | 105.42821 | 18730 ft | 412 kts | 139° |
| 2026-04-24 13:46 | -3.45511 | 105.44660 | 19071 ft | 414 kts | 139° |
| 2026-04-24 13:47 | -3.47732 | 105.46511 | 19408 ft | 416 kts | 139° |
| 2026-04-24 13:47 | -3.49955 | 105.48365 | 19768 ft | 417 kts | 139° |
| 2026-04-24 13:47 | -3.52190 | 105.50231 | 20106 ft | 419 kts | 139° |
| 2026-04-24 13:47 | -3.54428 | 105.52102 | 20425 ft | 421 kts | 139° |
| 2026-04-24 13:48 | -3.56685 | 105.53989 | 20749 ft | 423 kts | 139° |
| 2026-04-24 13:48 | -3.58946 | 105.55879 | 21062 ft | 424 kts | 139° |
| 2026-04-24 13:48 | -3.61217 | 105.57774 | 21367 ft | 426 kts | 139° |
| 2026-04-24 13:48 | -3.63499 | 105.59677 | 21661 ft | 428 kts | 139° |
| 2026-04-24 13:49 | -3.65790 | 105.61593 | 21948 ft | 430 kts | 139° |
| 2026-04-24 13:49 | -3.68095 | 105.63520 | 22240 ft | 432 kts | 139° |
| 2026-04-24 13:49 | -3.70377 | 105.65429 | 22517 ft | 434 kts | 139° |
| 2026-04-24 13:49 | -3.72724 | 105.67395 | 22791 ft | 435 kts | 139° |
| 2026-04-24 13:50 | -3.75025 | 105.69319 | 23056 ft | 437 kts | 139° |
| 2026-04-24 13:50 | -3.77362 | 105.71270 | 23318 ft | 439 kts | 139° |
| 2026-04-24 13:50 | -3.79714 | 105.73231 | 23550 ft | 440 kts | 139° |
| 2026-04-24 13:50 | -3.82075 | 105.75200 | 23764 ft | 442 kts | 139° |
| 2026-04-24 13:51 | -3.84436 | 105.77171 | 23977 ft | 443 kts | 139° |
| 2026-04-24 13:51 | -3.86809 | 105.79152 | 24196 ft | 444 kts | 139° |
| 2026-04-24 13:51 | -3.89180 | 105.81135 | 24406 ft | 445 kts | 139° |
| 2026-04-24 13:51 | -3.91563 | 105.83127 | 24614 ft | 446 kts | 139° |
| 2026-04-24 13:52 | -3.93951 | 105.85125 | 24817 ft | 447 kts | 139° |
| 2026-04-24 13:52 | -3.96345 | 105.87127 | 25009 ft | 449 kts | 140° |
| 2026-04-24 13:52 | -3.98742 | 105.89125 | 25207 ft | 450 kts | 140° |
| 2026-04-24 13:52 | -4.01152 | 105.91132 | 25400 ft | 451 kts | 140° |
| 2026-04-24 13:53 | -4.03565 | 105.93146 | 25596 ft | 452 kts | 140° |
| 2026-04-24 13:53 | -4.05979 | 105.95165 | 25790 ft | 453 kts | 140° |
| 2026-04-24 13:53 | -4.08393 | 105.97188 | 25979 ft | 453 kts | 140° |
| 2026-04-24 13:53 | -4.10817 | 105.99221 | 26171 ft | 454 kts | 140° |
| 2026-04-24 13:54 | -4.13246 | 106.01258 | 26355 ft | 456 kts | 140° |
| 2026-04-24 13:54 | -4.15648 | 106.03270 | 26531 ft | 457 kts | 140° |
| 2026-04-24 13:54 | -4.18091 | 106.05313 | 26706 ft | 458 kts | 140° |
| 2026-04-24 13:54 | -4.20541 | 106.07361 | 26880 ft | 459 kts | 140° |
| 2026-04-24 13:55 | -4.22994 | 106.09413 | 27047 ft | 460 kts | 140° |
| 2026-04-24 13:55 | -4.25448 | 106.11467 | 27211 ft | 461 kts | 140° |
| 2026-04-24 13:55 | -4.27912 | 106.13529 | 27365 ft | 462 kts | 140° |
| 2026-04-24 13:55 | -4.30377 | 106.15590 | 27525 ft | 463 kts | 140° |
| 2026-04-24 13:56 | -4.32853 | 106.17661 | 27669 ft | 464 kts | 140° |
| 2026-04-24 13:56 | -4.35335 | 106.19737 | 27820 ft | 465 kts | 140° |
| 2026-04-24 13:56 | -4.37812 | 106.21816 | 27962 ft | 466 kts | 140° |
| 2026-04-24 13:56 | -4.40301 | 106.23904 | 28092 ft | 467 kts | 140° |
| 2026-04-24 13:57 | -4.42801 | 106.25998 | 28239 ft | 467 kts | 140° |
| 2026-04-24 13:57 | -4.45295 | 106.28087 | 28371 ft | 468 kts | 140° |
| 2026-04-24 13:57 | -4.47798 | 106.30184 | 28501 ft | 469 kts | 140° |
| 2026-04-24 13:57 | -4.50268 | 106.32252 | 28671 ft | 468 kts | 140° |
| 2026-04-24 13:58 | -4.52796 | 106.34369 | 28868 ft | 467 kts | 140° |
| 2026-04-24 13:58 | -4.55267 | 106.36432 | 29054 ft | 467 kts | 141° |
| 2026-04-24 13:58 | -4.57756 | 106.38511 | 29251 ft | 466 kts | 141° |
| 2026-04-24 13:58 | -4.60247 | 106.40594 | 29429 ft | 466 kts | 140° |
| 2026-04-24 13:59 | -4.62733 | 106.42679 | 29612 ft | 465 kts | 141° |
| 2026-04-24 13:59 | -4.65210 | 106.44758 | 29803 ft | 465 kts | 141° |
| 2026-04-24 13:59 | -4.67696 | 106.46843 | 29992 ft | 464 kts | 141° |
| 2026-04-24 13:59 | -4.70167 | 106.48915 | 30145 ft | 464 kts | 141° |
| 2026-04-24 14:00 | -4.72642 | 106.50991 | 30305 ft | 463 kts | 141° |
| 2026-04-24 14:00 | -4.75115 | 106.53064 | 30450 ft | 463 kts | 141° |
| 2026-04-24 14:00 | -4.77587 | 106.55136 | 30614 ft | 462 kts | 141° |
| 2026-04-24 14:00 | -4.80053 | 106.57204 | 30764 ft | 462 kts | 141° |
| 2026-04-24 14:01 | -4.82522 | 106.59275 | 30870 ft | 462 kts | 141° |
| 2026-04-24 14:01 | -4.84970 | 106.61291 | 30764 ft | 461 kts | 144° |
| 2026-04-24 14:01 | -4.87677 | 106.63011 | 30532 ft | 461 kts | 153° |
| 2026-04-24 14:01 | -4.90590 | 106.64363 | 30306 ft | 461 kts | 156° |
| 2026-04-24 14:02 | -4.93509 | 106.65678 | 30082 ft | 460 kts | 156° |
| 2026-04-24 14:02 | -4.96420 | 106.66999 | 29841 ft | 458 kts | 156° |
| 2026-04-24 14:02 | -4.99319 | 106.68321 | 29574 ft | 456 kts | 156° |
| 2026-04-24 14:02 | -5.02200 | 106.69641 | 29306 ft | 455 kts | 155° |
| 2026-04-24 14:03 | -5.05069 | 106.70961 | 29045 ft | 453 kts | 155° |
| 2026-04-24 14:03 | -5.07934 | 106.72278 | 28770 ft | 451 kts | 155° |
| 2026-04-24 14:03 | -5.10772 | 106.73577 | 28180 ft | 447 kts | 155° |
| 2026-04-24 14:03 | -5.13601 | 106.74870 | 27592 ft | 443 kts | 155° |
| 2026-04-24 14:04 | -5.16389 | 106.76145 | 27179 ft | 436 kts | 155° |
| 2026-04-24 14:04 | -5.19120 | 106.77393 | 26860 ft | 427 kts | 155° |
| 2026-04-24 14:04 | -5.21822 | 106.78622 | 26264 ft | 426 kts | 155° |
| 2026-04-24 14:04 | -5.24500 | 106.79834 | 25863 ft | 420 kts | 155° |
| 2026-04-24 14:05 | -5.27160 | 106.81035 | 25344 ft | 418 kts | 155° |
| 2026-04-24 14:05 | -5.29801 | 106.82228 | 24844 ft | 416 kts | 155° |
| 2026-04-24 14:05 | -5.32450 | 106.83424 | 23920 ft | 424 kts | 155° |
| 2026-04-24 14:05 | -5.35192 | 106.84665 | 22722 ft | 439 kts | 154° |
| 2026-04-24 14:06 | -5.37972 | 106.85925 | 21526 ft | 450 kts | 154° |
| 2026-04-24 14:06 | -5.40837 | 106.87223 | 20933 ft | 447 kts | 154° |
| 2026-04-24 14:06 | -5.43636 | 106.88463 | 20794 ft | 433 kts | 158° |
| 2026-04-24 14:06 | -5.46516 | 106.89176 | 20671 ft | 422 kts | 173° |
| 2026-04-24 14:07 | -5.49398 | 106.89119 | 20543 ft | 405 kts | 188° |
| 2026-04-24 14:07 | -5.52109 | 106.88421 | 19569 ft | 406 kts | 199° |
| 2026-04-24 14:07 | -5.54786 | 106.87393 | 18292 ft | 416 kts | 200° |
| 2026-04-24 14:07 | -5.57510 | 106.86316 | 16816 ft | 426 kts | 200° |
| 2026-04-24 14:08 | -5.60293 | 106.85208 | 15353 ft | 434 kts | 200° |
| 2026-04-24 14:08 | -5.63106 | 106.84095 | 14219 ft | 432 kts | 200° |
| 2026-04-24 14:08 | -5.64953 | 106.83371 | 13543 ft | 429 kts | 200° |
| 2026-04-24 14:08 | -5.67713 | 106.82298 | 12457 ft | 423 kts | 200° |
| 2026-04-24 14:09 | -5.70402 | 106.81261 | 12066 ft | 402 kts | 199° |
| 2026-04-24 14:09 | -5.73786 | 106.79959 | 11899 ft | 383 kts | 199° |
| 2026-04-24 14:09 | -5.76228 | 106.79020 | 11772 ft | 370 kts | 199° |
| 2026-04-24 14:09 | -5.78592 | 106.78110 | 11653 ft | 357 kts | 199° |
| 2026-04-24 14:10 | -5.80143 | 106.77513 | 11569 ft | 349 kts | 199° |
| 2026-04-24 14:10 | -5.82376 | 106.76653 | 11446 ft | 338 kts | 199° |
| 2026-04-24 14:10 | -5.84478 | 106.75667 | 11232 ft | 332 kts | 211° |
| 2026-04-24 14:10 | -5.86270 | 106.74226 | 10906 ft | 330 kts | 226° |
| 2026-04-24 14:11 | -5.87628 | 106.72414 | 10560 ft | 328 kts | 240° |
| 2026-04-24 14:11 | -5.88558 | 106.70328 | 10195 ft | 327 kts | 249° |
| 2026-04-24 14:11 | -5.90207 | 106.66158 | 9792 ft | 312 kts | 248° |
| 2026-04-24 14:12 | -5.91007 | 106.64148 | 9525 ft | 307 kts | 248° |
| 2026-04-24 14:12 | -5.91788 | 106.62193 | 9374 ft | 298 kts | 248° |
| 2026-04-24 14:12 | -5.92554 | 106.60276 | 9083 ft | 294 kts | 248° |
| 2026-04-24 14:12 | -5.93315 | 106.58378 | 8747 ft | 292 kts | 248° |
| 2026-04-24 14:13 | -5.94075 | 106.56492 | 8399 ft | 290 kts | 248° |
| 2026-04-24 14:13 | -5.94836 | 106.54623 | 8059 ft | 288 kts | 248° |
| 2026-04-24 14:13 | -5.95596 | 106.52764 | 7942 ft | 288 kts | 248° |
| 2026-04-24 14:13 | -5.96356 | 106.50902 | 7820 ft | 289 kts | 248° |
| 2026-04-24 14:14 | -5.97119 | 106.49037 | 7698 ft | 289 kts | 248° |
| 2026-04-24 14:14 | -5.97881 | 106.47172 | 7586 ft | 288 kts | 248° |
| 2026-04-24 14:14 | -5.99401 | 106.43459 | 7349 ft | 287 kts | 247° |
| 2026-04-24 14:15 | -6.00159 | 106.41606 | 7230 ft | 286 kts | 248° |
| 2026-04-24 14:15 | -6.00911 | 106.39757 | 7111 ft | 286 kts | 248° |
| 2026-04-24 14:15 | -6.01653 | 106.37934 | 7000 ft | 285 kts | 248° |
| 2026-04-24 14:15 | -6.02399 | 106.36099 | 6970 ft | 279 kts | 248° |
| 2026-04-24 14:16 | -6.03115 | 106.34339 | 6996 ft | 266 kts | 246° |
| 2026-04-24 14:16 | -6.04101 | 106.32803 | 7003 ft | 261 kts | 220° |
| 2026-04-24 14:16 | -6.05648 | 106.31912 | 6937 ft | 259 kts | 192° |
| 2026-04-24 14:17 | -6.09118 | 106.32166 | 6390 ft | 250 kts | 166° |
| 2026-04-24 14:17 | -6.10805 | 106.32474 | 6127 ft | 249 kts | 167° |
| 2026-04-24 14:17 | -6.14219 | 106.33085 | 5622 ft | 246 kts | 167° |
| 2026-04-24 14:18 | -6.15901 | 106.33384 | 5375 ft | 245 kts | 167° |
| 2026-04-24 14:18 | -6.17577 | 106.33678 | 5178 ft | 242 kts | 167° |
| 2026-04-24 14:18 | -6.19211 | 106.33982 | 5082 ft | 237 kts | 161° |
| 2026-04-24 14:18 | -6.20628 | 106.34709 | 4979 ft | 226 kts | 136° |
| 2026-04-24 14:19 | -6.21600 | 106.35914 | 4792 ft | 222 kts | 119° |
| 2026-04-24 14:19 | -6.22409 | 106.37229 | 4612 ft | 221 kts | 120° |
| 2026-04-24 14:19 | -6.23206 | 106.38520 | 4427 ft | 213 kts | 117° |
| 2026-04-24 14:19 | -6.23661 | 106.39893 | 4254 ft | 207 kts | 92° |
| 2026-04-24 14:20 | -6.23451 | 106.41305 | 4092 ft | 206 kts | 69° |
| 2026-04-24 14:20 | -6.22910 | 106.42642 | 3939 ft | 207 kts | 69° |
| 2026-04-24 14:20 | -6.22375 | 106.43975 | 3830 ft | 202 kts | 69° |
| 2026-04-24 14:20 | -6.21870 | 106.45242 | 3773 ft | 189 kts | 69° |
| 2026-04-24 14:21 | -6.21385 | 106.46460 | 3603 ft | 186 kts | 69° |
| 2026-04-24 14:21 | -6.20908 | 106.47659 | 3372 ft | 183 kts | 69° |
| 2026-04-24 14:21 | -6.20435 | 106.48847 | 3146 ft | 183 kts | 70° |
| 2026-04-24 14:21 | -6.19967 | 106.50022 | 2914 ft | 178 kts | 69° |
| 2026-04-24 14:22 | -6.19514 | 106.51160 | 2685 ft | 173 kts | 69° |
| 2026-04-24 14:22 | -6.19074 | 106.52265 | 2468 ft | 168 kts | 69° |
| 2026-04-24 14:22 | -6.18224 | 106.54401 | 2036 ft | 159 kts | 69° |
| 2026-04-24 14:23 | -6.17814 | 106.55430 | 1833 ft | 159 kts | 70° |
| 2026-04-24 14:23 | -6.17405 | 106.56456 | 1649 ft | 158 kts | 69° |
| 2026-04-24 14:23 | -6.16996 | 106.57483 | 1444 ft | 158 kts | 69° |
| 2026-04-24 14:23 | -6.16588 | 106.58509 | 1244 ft | 158 kts | 68° |
| 2026-04-24 14:24 | -6.16178 | 106.59536 | 1045 ft | 158 kts | 69° |
| 2026-04-24 14:24 | -6.15769 | 106.60558 | 856 ft | 157 kts | 68° |
| 2026-04-24 14:24 | -6.15363 | 106.61573 | 668 ft | 156 kts | 69° |
| 2026-04-24 14:24 | -6.14981 | 106.62580 | 408 ft | 156 kts | 69° |
| 2026-04-24 14:25 | -6.14564 | 106.63595 | 232 ft | 155 kts | 67° |
| 2026-04-24 14:25 | -6.14167 | 106.64589 | 50 ft | 154 kts | 69° |
| 2026-04-24 14:25 | -6.13809 | 106.65483 | 39 ft | 116 kts | 68° |
| 2026-04-24 14:25 | -6.13572 | 106.66071 | 39 ft | 66 kts | 65° |
| 2026-04-24 14:26 | -6.13390 | 106.66291 | 40 ft | 21 kts | 34° |
| 2026-04-24 14:26 | -6.13309 | 106.66283 | 39 ft | 13 kts | 300° |
| 2026-04-24 14:26 | -6.13325 | 106.66205 | 39 ft | 11 kts | 249° |
| 2026-04-24 14:26 | -6.13350 | 106.66140 | 39 ft | 9 kts | 248° |
| 2026-04-24 14:27 | -6.13372 | 106.66087 | 38 ft | 7 kts | 248° |
| 2026-04-24 14:27 | -6.13390 | 106.66044 | 38 ft | 6 kts | 247° |
| 2026-04-24 14:27 | -6.13404 | 106.66009 | 38 ft | 5 kts | 248° |
| 2026-04-24 14:27 | -6.13424 | 106.65959 | 38 ft | 11 kts | 248° |
| 2026-04-24 14:28 | -6.13461 | 106.65863 | 36 ft | 18 kts | 249° |
| 2026-04-24 14:28 | -6.13514 | 106.65729 | 36 ft | 15 kts | 248° |
| 2026-04-24 14:28 | -6.13501 | 106.65657 | 37 ft | 10 kts | 332° |
| 2026-04-24 14:28 | -6.13440 | 106.65633 | 38 ft | 8 kts | 338° |
| 2026-04-24 14:29 | -6.13387 | 106.65600 | 37 ft | 12 kts | 311° |
| 2026-04-24 14:29 | -6.13330 | 106.65533 | 38 ft | 12 kts | 309° |
| 2026-04-24 14:29 | -6.13284 | 106.65471 | 38 ft | 10 kts | 298° |
| 2026-04-24 14:29 | -6.13259 | 106.65411 | 37 ft | 8 kts | 317° |
| 2026-04-24 14:30 | -6.13227 | 106.65394 | 38 ft | 8 kts | 333° |
| 2026-04-24 14:30 | -6.13213 | 106.65387 | 38 ft | 0 kts | 333° |